Time;durP1;ratioP1;P1;durP2;ratioP2;P2;SDS_P1;SDS_P2;PMS_P1;PMS_P2;Temp;Humidity;BMP_temperature;BMP_pressure;BME280_temperature;BME280_humidity;BME280_pressure;Samples;Min_cycle;Max_cycle;Signal;HPM_P1;HPM_P2
2022/07/14 00:00:09;;;;;;;1.52;1.30;;;;;;;;;;5164871;27;20198;-68
2022/07/14 00:02:35;;;;;;;1.00;1.00;;;;;;;;;;5164672;27;20381;-68
2022/07/14 00:05:01;;;;;;;4.10;1.10;;;;;;;;;;5165094;27;20252;-68
2022/07/14 00:07:29;;;;;;;1.90;0.80;;;;;;;;;;5164584;27;20201;-68
2022/07/14 00:09:56;;;;;;;3.33;0.98;;;;;;;;;;5155787;27;20234;-68
2022/07/14 00:12:22;;;;;;;1.65;1.27;;;;;;;;;;5148700;27;20214;-68
2022/07/14 00:14:48;;;;;;;1.38;1.13;;;;;;;;;;5143905;27;20194;-68
2022/07/14 00:17:15;;;;;;;3.85;1.05;;;;;;;;;;5143476;27;20204;-68
2022/07/14 00:19:41;;;;;;;1.30;1.30;;;;;;;;;;5143823;27;20199;-68
2022/07/14 00:22:07;;;;;;;1.40;1.27;;;;;;;;;;5143905;27;20409;-68
2022/07/14 00:24:35;;;;;;;1.20;1.20;;;;;;;;;;5143825;27;20718;-68
2022/07/14 00:27:01;;;;;;;1.95;1.10;;;;;;;;;;5143473;27;20486;-68
2022/07/14 00:29:27;;;;;;;2.83;0.90;;;;;;;;;;5143584;27;20198;-68
2022/07/14 00:31:53;;;;;;;1.23;1.23;;;;;;;;;;5143370;27;20225;-68
2022/07/14 00:34:20;;;;;;;2.95;1.15;;;;;;;;;;5143668;27;20247;-68
2022/07/14 00:36:46;;;;;;;1.10;1.08;;;;;;;;;;5143326;27;20411;-68
2022/07/14 00:39:12;;;;;;;1.30;1.10;;;;;;;;;;5143534;27;20435;-68
2022/07/14 00:41:40;;;;;;;1.17;0.80;;;;;;;;;;5143516;27;20356;-68
2022/07/14 00:44:06;;;;;;;1.15;1.02;;;;;;;;;;5143213;27;20213;-68
2022/07/14 00:46:32;;;;;;;2.25;1.33;;;;;;;;;;5142994;27;20239;-68
2022/07/14 00:48:58;;;;;;;1.23;1.10;;;;;;;;;;5144072;27;20200;-68
2022/07/14 00:51:25;;;;;;;1.08;1.05;;;;;;;;;;5147813;27;20255;-68
2022/07/14 00:53:52;;;;;;;2.70;1.00;;;;;;;;;;5147712;27;20225;-68
2022/07/14 00:56:18;;;;;;;4.00;1.20;;;;;;;;;;5147505;27;20190;-68
2022/07/14 00:58:45;;;;;;;1.42;1.13;;;;;;;;;;5147530;27;20198;-68
2022/07/14 01:01:12;;;;;;;1.20;1.17;;;;;;;;;;5147432;27;20209;-68
2022/07/14 01:03:38;;;;;;;7.68;1.20;;;;;;;;;;5147610;27;20191;-68
2022/07/14 01:06:04;;;;;;;3.13;0.95;;;;;;;;;;5147187;27;20214;-68
2022/07/14 01:08:31;;;;;;;1.40;1.30;;;;;;;;;;5147267;27;20201;-69
2022/07/14 01:10:57;;;;;;;1.38;1.08;;;;;;;;;;5147150;27;20198;-68
2022/07/14 01:13:23;;;;;;;3.60;1.00;;;;;;;;;;5147093;27;20537;-68
2022/07/14 01:15:51;;;;;;;4.47;1.30;;;;;;;;;;5147172;27;20537;-68
2022/07/14 01:18:17;;;;;;;2.35;1.10;;;;;;;;;;5147309;27;20216;-68
2022/07/14 01:20:43;;;;;;;3.30;1.02;;;;;;;;;;5147128;27;20428;-68
2022/07/14 01:23:11;;;;;;;1.08;0.98;;;;;;;;;;5147145;27;20498;-68
2022/07/14 01:25:37;;;;;;;1.52;1.30;;;;;;;;;;5147019;27;20556;-68
2022/07/14 01:28:04;;;;;;;2.45;1.20;;;;;;;;;;5146077;27;20563;-68
2022/07/14 01:30:30;;;;;;;1.38;0.82;;;;;;;;;;5146858;27;20195;-68
2022/07/14 01:32:57;;;;;;;1.30;1.20;;;;;;;;;;5146875;27;20214;-68
2022/07/14 01:35:23;;;;;;;4.72;1.27;;;;;;;;;;5146907;27;20203;-68
2022/07/14 01:37:49;;;;;;;2.47;0.70;;;;;;;;;;5146426;27;20498;-68
2022/07/14 01:40:17;;;;;;;2.58;0.93;;;;;;;;;;5146948;27;20202;-68
2022/07/14 01:42:43;;;;;;;1.00;0.88;;;;;;;;;;5146869;27;20195;-68
2022/07/14 01:45:10;;;;;;;1.60;0.95;;;;;;;;;;5146668;27;20206;-68
2022/07/14 01:47:37;;;;;;;2.35;0.95;;;;;;;;;;5146815;27;20485;-68
2022/07/14 01:50:03;;;;;;;3.22;1.08;;;;;;;;;;5146559;27;20233;-68
2022/07/14 01:52:29;;;;;;;1.23;1.15;;;;;;;;;;5146282;27;20220;-68
2022/07/14 01:54:56;;;;;;;1.10;0.80;;;;;;;;;;5146708;27;20240;-68
2022/07/14 01:57:24;;;;;;;1.02;1.02;;;;;;;;;;5146405;27;20206;-68
2022/07/14 01:59:50;;;;;;;0.80;0.80;;;;;;;;;;5146255;27;20202;-68
2022/07/14 02:02:16;;;;;;;1.20;1.20;;;;;;;;;;5146369;27;20423;-68
2022/07/14 02:04:43;;;;;;;0.98;0.98;;;;;;;;;;5146319;27;20190;-68
2022/07/14 02:07:09;;;;;;;1.38;1.25;;;;;;;;;;5145818;27;20273;-68
2022/07/14 02:12:19;;;;;;;1.40;1.30;;;;;;;;;;5146093;27;20283;-68
2022/07/14 02:14:47;;;;;;;1.70;0.95;;;;;;;;;;5146083;27;20194;-68
2022/07/14 02:17:13;;;;;;;1.55;1.00;;;;;;;;;;5145874;27;20195;-68
2022/07/14 02:19:40;;;;;;;3.70;1.48;;;;;;;;;;5145785;27;20194;-68
2022/07/14 02:22:06;;;;;;;5.45;1.20;;;;;;;;;;5145850;27;20265;-68
2022/07/14 02:24:32;;;;;;;1.50;1.40;;;;;;;;;;5145826;27;20240;-68
2022/07/14 02:26:59;;;;;;;1.00;1.00;;;;;;;;;;5145627;27;20513;-68
2022/07/14 02:29:25;;;;;;;1.00;0.95;;;;;;;;;;5145833;27;20498;-68
2022/07/14 02:31:53;;;;;;;1.00;1.00;;;;;;;;;;5145673;27;20538;-68
2022/07/14 02:34:19;;;;;;;3.70;1.17;;;;;;;;;;5145514;27;20308;-68
2022/07/14 02:36:47;;;;;;;1.05;1.05;;;;;;;;;;5145398;27;20198;-68
2022/07/14 02:39:14;;;;;;;4.13;1.27;;;;;;;;;;5145554;27;20201;-68
2022/07/14 02:41:40;;;;;;;2.25;1.27;;;;;;;;;;5145627;27;20217;-68
2022/07/14 02:44:08;;;;;;;2.72;1.20;;;;;;;;;;5145960;27;20213;-68
2022/07/14 02:46:35;;;;;;;2.30;1.15;;;;;;;;;;5145159;27;20548;-68
2022/07/14 02:49:03;;;;;;;2.28;1.10;;;;;;;;;;5145734;27;20195;-68
2022/07/14 02:51:29;;;;;;;1.02;1.02;;;;;;;;;;5145526;27;20502;-68
2022/07/14 02:53:55;;;;;;;1.30;1.30;;;;;;;;;;5145330;27;20279;-68
2022/07/14 02:56:21;;;;;;;1.40;1.00;;;;;;;;;;5145144;27;20427;-68
2022/07/14 02:58:48;;;;;;;1.98;1.23;;;;;;;;;;5145269;27;20195;-68
2022/07/14 03:01:14;;;;;;;0.88;0.88;;;;;;;;;;5145119;27;20195;-68
2022/07/14 03:03:40;;;;;;;1.42;1.10;;;;;;;;;;5145299;27;20194;-68
2022/07/14 03:06:09;;;;;;;2.28;1.20;;;;;;;;;;5144821;27;20602;-68
2022/07/14 03:08:35;;;;;;;1.15;1.10;;;;;;;;;;5145102;27;20198;-68
2022/07/14 03:11:02;;;;;;;0.98;0.90;;;;;;;;;;5144944;27;20195;-68
2022/07/14 03:13:28;;;;;;;1.15;1.10;;;;;;;;;;5144227;27;20215;-68
2022/07/14 03:15:54;;;;;;;1.27;1.15;;;;;;;;;;5144739;27;20194;-68
2022/07/14 03:18:20;;;;;;;2.17;1.10;;;;;;;;;;5144565;27;20199;-68
2022/07/14 03:20:47;;;;;;;3.92;1.10;;;;;;;;;;5144877;27;20198;-68
2022/07/14 03:23:14;;;;;;;1.38;1.38;;;;;;;;;;5144749;27;20199;-68
2022/07/14 03:25:42;;;;;;;3.40;3.10;;;;;;;;;;5144740;27;20215;-68
2022/07/14 03:28:08;;;;;;;5.60;2.22;;;;;;;;;;5144284;27;20201;-68
2022/07/14 03:30:35;;;;;;;5.03;1.90;;;;;;;;;;5144593;27;20210;-68
2022/07/14 03:33:01;;;;;;;2.05;1.95;;;;;;;;;;5144623;27;20222;-68
2022/07/14 03:35:27;;;;;;;2.15;1.55;;;;;;;;;;5144698;27;20201;-68
2022/07/14 03:37:55;;;;;;;2.42;2.10;;;;;;;;;;5144230;27;20195;-68
2022/07/14 03:40:22;;;;;;;2.15;1.70;;;;;;;;;;5144416;27;20195;-68
2022/07/14 03:42:48;;;;;;;1.55;1.48;;;;;;;;;;5144347;27;20190;-68
2022/07/14 03:45:15;;;;;;;2.13;2.00;;;;;;;;;;5144593;27;20194;-68
2022/07/14 03:47:42;;;;;;;1.80;1.70;;;;;;;;;;5144134;27;20239;-68
2022/07/14 03:50:09;;;;;;;1.73;1.60;;;;;;;;;;5144376;27;20195;-68
2022/07/14 03:52:35;;;;;;;1.45;1.30;;;;;;;;;;5144090;27;20254;-68
2022/07/14 03:55:01;;;;;;;3.60;1.50;;;;;;;;;;5144179;27;20498;-68
2022/07/14 03:57:29;;;;;;;2.25;1.60;;;;;;;;;;5143786;27;20198;-68
2022/07/14 03:59:55;;;;;;;1.85;1.30;;;;;;;;;;5144159;27;20194;-68
2022/07/14 04:02:21;;;;;;;1.10;1.10;;;;;;;;;;5144156;27;20239;-68
2022/07/14 04:04:48;;;;;;;1.70;1.60;;;;;;;;;;5144212;27;20326;-68
2022/07/14 04:07:14;;;;;;;1.55;1.45;;;;;;;;;;5143675;27;20206;-68
2022/07/14 04:09:40;;;;;;;2.63;2.00;;;;;;;;;;5143917;27;20202;-68
2022/07/14 04:12:07;;;;;;;3.85;1.80;;;;;;;;;;5143811;27;20195;-68
2022/07/14 04:14:35;;;;;;;3.85;1.95;;;;;;;;;;5143901;27;20563;-68
2022/07/14 04:17:01;;;;;;;1.88;1.88;;;;;;;;;;5143504;27;20208;-67
2022/07/14 04:19:27;;;;;;;2.90;1.65;;;;;;;;;;5143731;27;20231;-67
2022/07/14 04:21:53;;;;;;;2.10;1.90;;;;;;;;;;5143624;27;20199;-67
2022/07/14 04:24:20;;;;;;;4.70;1.55;;;;;;;;;;5142805;27;20190;-67
2022/07/14 04:26:46;;;;;;;2.72;1.73;;;;;;;;;;5143334;27;20441;-67
2022/07/14 04:29:12;;;;;;;1.85;1.63;;;;;;;;;;5143832;27;20198;-67
2022/07/14 04:31:40;;;;;;;2.63;1.38;;;;;;;;;;5143734;27;20221;-67
2022/07/14 04:34:07;;;;;;;1.55;1.33;;;;;;;;;;5143452;27;20222;-67
2022/07/14 04:36:33;;;;;;;4.72;1.80;;;;;;;;;;5143421;27;20231;-67
2022/07/14 04:38:59;;;;;;;2.90;1.92;;;;;;;;;;5143914;27;20239;-68
2022/07/14 04:41:26;;;;;;;2.65;1.42;;;;;;;;;;5143447;27;20202;-67
2022/07/14 04:43:53;;;;;;;1.75;1.60;;;;;;;;;;5143552;27;20262;-67
2022/07/14 04:46:19;;;;;;;2.75;1.70;;;;;;;;;;5143305;27;20547;-67
2022/07/14 04:54:15;;;;;;;2.35;1.60;;;;;;;;;;5143307;28;20281;-68
2022/07/14 04:56:41;;;;;;;2.15;1.20;;;;;;;;;;5143273;27;20239;-68
2022/07/14 04:59:07;;;;;;;1.60;1.48;;;;;;;;;;5143341;27;20198;-68
2022/07/14 05:01:34;;;;;;;1.95;1.85;;;;;;;;;;5143343;27;20194;-68
2022/07/14 05:04:02;;;;;;;2.75;2.20;;;;;;;;;;5142904;27;20221;-68
2022/07/14 05:06:28;;;;;;;2.10;1.92;;;;;;;;;;5142754;27;20287;-68
2022/07/14 05:08:54;;;;;;;6.25;2.08;;;;;;;;;;5143047;27;20195;-68
2022/07/14 05:11:20;;;;;;;4.45;2.17;;;;;;;;;;5143086;27;20194;-68
2022/07/14 05:13:47;;;;;;;3.10;2.60;;;;;;;;;;5142898;27;20226;-68
2022/07/14 05:16:13;;;;;;;4.95;2.17;;;;;;;;;;5142645;27;20198;-68
2022/07/14 05:18:39;;;;;;;5.32;1.88;;;;;;;;;;5142875;27;20202;-68
2022/07/14 05:21:07;;;;;;;2.60;1.77;;;;;;;;;;5142919;27;20199;-68
2022/07/14 05:23:34;;;;;;;2.00;1.85;;;;;;;;;;5143009;27;20198;-68
2022/07/14 05:26:00;;;;;;;2.28;2.08;;;;;;;;;;5142754;27;20198;-68
2022/07/14 05:28:26;;;;;;;4.90;1.80;;;;;;;;;;5142863;27;20255;-68
2022/07/14 05:30:55;;;;;;;3.05;2.35;;;;;;;;;;5142707;27;20194;-68
2022/07/14 05:33:21;;;;;;;5.45;2.75;;;;;;;;;;5142525;27;20221;-68
2022/07/14 05:35:47;;;;;;;5.28;3.08;;;;;;;;;;5145134;27;20194;-68
2022/07/14 05:38:15;;;;;;;6.32;2.92;;;;;;;;;;5146678;27;20195;-68
2022/07/14 05:40:41;;;;;;;5.05;2.95;;;;;;;;;;5146658;27;20202;-68
2022/07/14 05:43:08;;;;;;;3.53;2.70;;;;;;;;;;5146581;27;20278;-68
2022/07/14 05:45:34;;;;;;;3.53;2.60;;;;;;;;;;5146406;27;20231;-68
2022/07/14 05:48:00;;;;;;;9.60;2.80;;;;;;;;;;5146035;27;20239;-68
2022/07/14 05:50:26;;;;;;;110.50;7.07;;;;;;;;;;5143379;27;20242;-62
2022/07/14 05:52:54;;;;;;;9.52;2.90;;;;;;;;;;5154305;27;20304;-62
2022/07/14 05:55:22;;;;;;;7.53;2.22;;;;;;;;;;5153068;27;20428;-62
2022/07/14 05:57:49;;;;;;;4.32;2.13;;;;;;;;;;5143023;27;20435;-62
2022/07/14 06:00:16;;;;;;;8.95;2.45;;;;;;;;;;5139374;27;20267;-62
2022/07/14 06:02:42;;;;;;;9.70;2.70;;;;;;;;;;5143697;27;20212;-61
2022/07/14 06:05:09;;;;;;;7.53;2.40;;;;;;;;;;5159115;27;20290;-62
2022/07/14 06:07:35;;;;;;;4.32;3.95;;;;;;;;;;5145136;27;20555;-62
2022/07/14 06:10:01;;;;;;;5.07;2.05;;;;;;;;;;5136960;27;20233;-62
2022/07/14 06:12:29;;;;;;;4.40;2.30;;;;;;;;;;5137390;27;20238;-61
2022/07/14 06:14:56;;;;;;;8.20;1.80;;;;;;;;;;5152192;27;20226;-62
2022/07/14 06:17:22;;;;;;;2.05;1.90;;;;;;;;;;5143384;27;20213;-62
2022/07/14 06:19:48;;;;;;;4.00;2.00;;;;;;;;;;5156971;27;20256;-62
2022/07/14 06:22:14;;;;;;;3.35;2.72;;;;;;;;;;5157988;27;20258;-62
2022/07/14 06:24:41;;;;;;;4.03;1.85;;;;;;;;;;5149382;27;20206;-62
2022/07/14 06:27:08;;;;;;;5.32;1.95;;;;;;;;;;5145927;27;20210;-61
2022/07/14 06:29:35;;;;;;;4.45;2.22;;;;;;;;;;5136482;27;20237;-62
2022/07/14 06:32:03;;;;;;;9.50;2.20;;;;;;;;;;5139160;27;20216;-62
2022/07/14 06:34:29;;;;;;;7.45;2.80;;;;;;;;;;5137888;27;20442;-63
2022/07/14 06:36:56;;;;;;;5.75;2.33;;;;;;;;;;5154084;27;20447;-63
2022/07/14 06:39:22;;;;;;;6.32;2.13;;;;;;;;;;5158437;27;20529;-63
2022/07/14 06:41:48;;;;;;;5.53;2.13;;;;;;;;;;5157899;27;20536;-62
2022/07/14 06:44:14;;;;;;;3.85;2.83;;;;;;;;;;5140226;27;20521;-63
2022/07/14 06:46:42;;;;;;;3.65;2.50;;;;;;;;;;5136076;27;20251;-63
2022/07/14 06:49:08;;;;;;;7.68;2.10;;;;;;;;;;5155212;27;20525;-62
2022/07/14 06:51:34;;;;;;;4.20;1.95;;;;;;;;;;5141426;27;20213;-62
2022/07/14 06:54:01;;;;;;;3.92;1.83;;;;;;;;;;5153668;27;20587;-63
2022/07/14 06:56:27;;;;;;;3.80;2.22;;;;;;;;;;5152992;27;20444;-62
2022/07/14 06:58:53;;;;;;;3.78;2.33;;;;;;;;;;5145615;27;20217;-62
2022/07/14 07:01:19;;;;;;;4.68;1.60;;;;;;;;;;5144065;27;20281;-62
2022/07/14 07:03:47;;;;;;;1.35;1.35;;;;;;;;;;5137413;27;20488;-62
2022/07/14 07:08:57;;;;;;;3.75;1.40;;;;;;;;;;5138199;27;20568;-62
2022/07/14 07:11:23;;;;;;;5.25;1.77;;;;;;;;;;5136013;27;20214;-61
2022/07/14 07:13:49;;;;;;;10.20;4.28;;;;;;;;;;5140766;27;20529;-63
2022/07/14 07:16:16;;;;;;;1.98;1.73;;;;;;;;;;5136570;27;20472;-62
2022/07/14 07:18:42;;;;;;;1.85;1.40;;;;;;;;;;5151536;27;20209;-63
2022/07/14 07:21:12;;;;;;;4.03;1.98;;;;;;;;;;5157579;27;20237;-63
2022/07/14 07:23:41;;;;;;;4.22;1.90;;;;;;;;;;5153785;27;20446;-63
2022/07/14 07:26:08;;;;;;;7.35;2.83;;;;;;;;;;5157553;27;20594;-63
2022/07/14 07:28:34;;;;;;;2.47;2.20;;;;;;;;;;5153842;27;20254;-63
2022/07/14 07:31:00;;;;;;;2.05;1.90;;;;;;;;;;5156467;27;20213;-62
2022/07/14 07:33:27;;;;;;;2.50;1.88;;;;;;;;;;5154400;27;20262;-61
2022/07/14 07:35:53;;;;;;;6.43;5.72;;;;;;;;;;5137158;27;20226;-62
2022/07/14 07:38:21;;;;;;;10.00;6.18;;;;;;;;;;5141542;27;20333;-62
2022/07/14 07:40:48;;;;;;;3.55;3.13;;;;;;;;;;5146749;27;20210;-63
2022/07/14 07:43:14;;;;;;;2.22;1.77;;;;;;;;;;5136200;27;20210;-62
2022/07/14 07:45:41;;;;;;;4.75;3.08;;;;;;;;;;5136263;27;20202;-64
2022/07/14 07:48:07;;;;;;;2.72;2.53;;;;;;;;;;5140205;27;20209;-63
2022/07/14 07:50:34;;;;;;;5.28;3.40;;;;;;;;;;5152564;27;20213;-62
2022/07/14 07:53:00;;;;;;;3.42;2.60;;;;;;;;;;5135402;27;20210;-62
2022/07/14 07:55:28;;;;;;;2.63;2.42;;;;;;;;;;5135933;27;20290;-63
2022/07/14 07:57:54;;;;;;;1.95;1.60;;;;;;;;;;5135643;27;20214;-62
2022/07/14 08:00:20;;;;;;;3.97;2.45;;;;;;;;;;5135439;27;20210;-62
2022/07/14 08:02:48;;;;;;;6.80;5.28;;;;;;;;;;5136258;27;20517;-62
2022/07/14 08:05:14;;;;;;;3.55;2.03;;;;;;;;;;5135339;27;20262;-62
2022/07/14 08:07:41;;;;;;;2.72;2.55;;;;;;;;;;5135427;27;20262;-62
2022/07/14 08:10:07;;;;;;;5.30;3.20;;;;;;;;;;5136107;27;20209;-62
2022/07/14 08:12:35;;;;;;;5.93;2.35;;;;;;;;;;5135045;27;20217;-63
2022/07/14 08:15:01;;;;;;;2.53;1.95;;;;;;;;;;5135652;27;20233;-62
2022/07/14 08:17:27;;;;;;;6.13;2.47;;;;;;;;;;5135544;27;20216;-62
2022/07/14 08:19:55;;;;;;;4.55;1.90;;;;;;;;;;5135264;27;20193;-63
2022/07/14 08:22:24;;;;;;;5.63;3.58;;;;;;;;;;5135346;27;20221;-62
2022/07/14 08:24:51;;;;;;;2.30;1.88;;;;;;;;;;5135416;27;20434;-62
2022/07/14 08:27:17;;;;;;;4.25;3.00;;;;;;;;;;5149759;27;20209;-62
2022/07/14 08:29:45;;;;;;;7.72;1.73;;;;;;;;;;5156263;27;20257;-63
2022/07/14 08:32:11;;;;;;;2.45;1.50;;;;;;;;;;5155561;27;20269;-63
2022/07/14 08:34:37;;;;;;;4.03;1.20;;;;;;;;;;5156136;27;20592;-62
2022/07/14 08:37:05;;;;;;;4.45;1.20;;;;;;;;;;5142689;27;20212;-62
2022/07/14 08:39:31;;;;;;;4.97;1.08;;;;;;;;;;5155742;27;20221;-62
2022/07/14 08:41:59;;;;;;;2.72;1.38;;;;;;;;;;5155470;27;20205;-62
2022/07/14 08:44:26;;;;;;;3.25;1.25;;;;;;;;;;5155357;27;20209;-62
2022/07/14 08:46:54;;;;;;;3.75;1.70;;;;;;;;;;5135975;27;20206;-61
2022/07/14 08:49:21;;;;;;;5.28;1.98;;;;;;;;;;5135573;27;20209;-62
2022/07/14 08:51:49;;;;;;;4.43;1.35;;;;;;;;;;5135108;27;20209;-62
2022/07/14 08:54:15;;;;;;;3.30;1.20;;;;;;;;;;5134546;27;20221;-62
2022/07/14 08:56:42;;;;;;;1.52;1.17;;;;;;;;;;5135263;27;20262;-62
2022/07/14 08:59:08;;;;;;;2.70;1.48;;;;;;;;;;5136311;27;20424;-62
2022/07/14 09:01:35;;;;;;;1.15;1.13;;;;;;;;;;5146873;27;20201;-63
2022/07/14 09:04:03;;;;;;;5.07;1.30;;;;;;;;;;5148833;27;20216;-63
2022/07/14 09:06:52;;;;;;;1.35;1.25;;;;;;;;;;5134709;27;20229;-62
2022/07/14 09:09:19;;;;;;;1.33;1.23;;;;;;;;;;5144252;27;20540;-62
2022/07/14 09:11:49;;;;;;;2.67;1.30;;;;;;;;;;5138333;27;20210;-63
2022/07/14 09:14:15;;;;;;;1.80;1.00;;;;;;;;;;5138676;27;20210;-63
2022/07/14 09:16:41;;;;;;;3.15;1.40;;;;;;;;;;5156063;27;20213;-62
2022/07/14 09:19:10;;;;;;;1.30;0.90;;;;;;;;;;5160602;27;20209;-62
2022/07/14 09:21:37;;;;;;;1.55;1.20;;;;;;;;;;5156596;27;20449;-62
2022/07/14 09:24:05;;;;;;;5.28;1.25;;;;;;;;;;5139522;27;20210;-62
2022/07/14 09:26:33;;;;;;;1.73;1.38;;;;;;;;;;5146028;27;20410;-62
2022/07/14 09:29:00;;;;;;;1.77;1.20;;;;;;;;;;5156527;27;20280;-63
2022/07/14 09:31:27;;;;;;;2.17;1.10;;;;;;;;;;5154060;27;20376;-63
2022/07/14 09:33:55;;;;;;;7.18;0.90;;;;;;;;;;5140293;27;20590;-63
2022/07/14 09:36:28;;;;;;;3.05;1.00;;;;;;;;;;5138033;27;20596;-62
2022/07/14 09:38:57;;;;;;;10.35;1.13;;;;;;;;;;5138724;27;20209;-62
2022/07/14 09:41:24;;;;;;;2.35;0.95;;;;;;;;;;5144549;27;20209;-63
2022/07/14 09:44:09;;;;;;;2.33;1.20;;;;;;;;;;5159180;27;20560;-63
2022/07/14 09:46:46;;;;;;;2.85;1.00;;;;;;;;;;5150451;27;20424;-63
2022/07/14 09:49:13;;;;;;;3.13;0.90;;;;;;;;;;5159283;27;20209;-63
2022/07/14 09:52:04;;;;;;;1.05;0.90;;;;;;;;;;5159319;27;20251;-63
2022/07/14 09:54:48;;;;;;;1.95;1.20;;;;;;;;;;5143060;27;20213;-63
2022/07/14 09:57:25;;;;;;;1.58;1.10;;;;;;;;;;5154563;27;20337;-64
2022/07/14 09:59:52;;;;;;;1.77;1.02;;;;;;;;;;5148102;27;20232;-63
2022/07/14 10:02:21;;;;;;;5.22;1.10;;;;;;;;;;5148354;27;20209;-62
2022/07/14 10:04:47;;;;;;;2.15;1.05;;;;;;;;;;5155590;27;20391;-62
2022/07/14 10:07:15;;;;;;;1.55;1.10;;;;;;;;;;5154055;27;20218;-62
2022/07/14 10:09:44;;;;;;;2.53;0.90;;;;;;;;;;5139049;27;20214;-62
2022/07/14 10:12:12;;;;;;;0.85;0.85;;;;;;;;;;5141527;27;20525;-63
2022/07/14 10:14:38;;;;;;;0.98;0.80;;;;;;;;;;5154900;27;20225;-63
2022/07/14 10:17:05;;;;;;;2.53;1.20;;;;;;;;;;5149921;27;20254;-63
2022/07/14 10:19:31;;;;;;;2.72;0.65;;;;;;;;;;5137626;27;20210;-62
2022/07/14 10:21:58;;;;;;;0.88;0.80;;;;;;;;;;5152138;27;20212;-62
2022/07/14 10:24:25;;;;;;;1.42;0.90;;;;;;;;;;5156274;27;20236;-63
2022/07/14 10:26:52;;;;;;;2.58;0.60;;;;;;;;;;5158906;27;20208;-60
2022/07/14 10:29:20;;;;;;;1.30;1.00;;;;;;;;;;5159176;27;20504;-62
2022/07/14 10:31:55;;;;;;;3.97;1.00;;;;;;;;;;5159325;27;20250;-62
2022/07/14 10:34:29;;;;;;;2.05;0.93;;;;;;;;;;5158998;27;20253;-62
2022/07/14 10:37:00;;;;;;;6.72;1.00;;;;;;;;;;5158746;27;20205;-60
2022/07/14 10:39:29;;;;;;;0.70;0.70;;;;;;;;;;5158507;27;20209;-63
2022/07/14 10:42:00;;;;;;;2.58;0.77;;;;;;;;;;5143959;27;20217;-62
2022/07/14 10:44:29;;;;;;;4.38;0.60;;;;;;;;;;5138092;27;20457;-62
2022/07/14 10:47:06;;;;;;;2.90;0.85;;;;;;;;;;5137809;27;20453;-62
2022/07/14 10:49:52;;;;;;;3.55;0.85;;;;;;;;;;5137463;27;20577;-63
2022/07/14 10:52:25;;;;;;;1.85;0.80;;;;;;;;;;5151238;27;20224;-65
2022/07/14 10:55:06;;;;;;;3.75;0.98;;;;;;;;;;5139696;27;20249;-64
2022/07/14 10:57:33;;;;;;;3.50;0.95;;;;;;;;;;5137485;27;20209;-64
2022/07/14 11:00:00;;;;;;;1.70;0.90;;;;;;;;;;5140032;27;20236;-65
2022/07/14 11:02:44;;;;;;;1.65;0.82;;;;;;;;;;5147217;27;20259;-69
2022/07/14 11:05:16;;;;;;;1.80;0.80;;;;;;;;;;5137992;27;20222;-71
2022/07/14 11:07:46;;;;;;;1.20;0.75;;;;;;;;;;5148384;27;20217;-70
2022/07/14 11:10:31;;;;;;;3.70;1.00;;;;;;;;;;5156330;27;20307;-71
2022/07/14 11:13:10;;;;;;;1.65;0.75;;;;;;;;;;5153160;27;20201;-72
2022/07/14 11:15:38;;;;;;;5.22;0.95;;;;;;;;;;5154030;27;20225;-71
2022/07/14 11:18:20;;;;;;;5.90;1.00;;;;;;;;;;5141548;27;20405;-71
2022/07/14 11:20:50;;;;;;;3.28;1.05;;;;;;;;;;5140728;27;20213;-71
2022/07/14 11:23:21;;;;;;;2.03;0.90;;;;;;;;;;5156245;27;20217;-70
2022/07/14 11:25:48;;;;;;;2.38;0.88;;;;;;;;;;5157240;27;20205;-70
2022/07/14 11:28:29;;;;;;;3.42;0.70;;;;;;;;;;5155995;27;20209;-71
2022/07/14 11:31:08;;;;;;;2.03;0.90;;;;;;;;;;5155210;27;20201;-71
2022/07/14 11:33:34;;;;;;;3.70;0.90;;;;;;;;;;5156935;27;20200;-71
2022/07/14 11:36:19;;;;;;;3.22;0.82;;;;;;;;;;5156036;27;20298;-71
2022/07/14 11:38:47;;;;;;;3.33;0.88;;;;;;;;;;5156619;27;20268;-71
2022/07/14 11:41:14;;;;;;;0.52;0.50;;;;;;;;;;5156180;27;20216;-71
2022/07/14 11:43:45;;;;;;;1.83;0.80;;;;;;;;;;5156875;27;20281;-71
2022/07/14 11:46:12;;;;;;;3.38;0.85;;;;;;;;;;5143215;27;20205;-71
2022/07/14 11:48:39;;;;;;;1.58;0.85;;;;;;;;;;5136302;27;20254;-71
2022/07/14 11:51:07;;;;;;;3.55;0.90;;;;;;;;;;5136201;27;20217;-71
2022/07/14 11:53:33;;;;;;;0.95;0.73;;;;;;;;;;5143202;27;20212;-71
2022/07/14 11:56:01;;;;;;;0.90;0.90;;;;;;;;;;5157053;27;20225;-71
2022/07/14 11:58:28;;;;;;;1.15;0.85;;;;;;;;;;5156458;27;20232;-71
2022/07/14 12:00:55;;;;;;;3.50;0.93;;;;;;;;;;5156902;27;20265;-71
2022/07/14 12:03:21;;;;;;;1.85;1.00;;;;;;;;;;5156643;27;20209;-70
2022/07/14 12:05:52;;;;;;;3.38;0.88;;;;;;;;;;5137959;27;20214;-71
2022/07/14 12:08:21;;;;;;;2.15;0.98;;;;;;;;;;5136055;27;20307;-71
2022/07/14 12:10:49;;;;;;;1.02;1.02;;;;;;;;;;5135480;27;20285;-71
2022/07/14 12:13:17;;;;;;;1.95;0.93;;;;;;;;;;5140305;27;20412;-71
2022/07/14 12:15:44;;;;;;;4.85;1.08;;;;;;;;;;5155063;27;20217;-72
2022/07/14 12:18:11;;;;;;;0.95;0.90;;;;;;;;;;5138909;27;20511;-71
2022/07/14 12:20:38;;;;;;;2.20;0.70;;;;;;;;;;5151083;27;20284;-71
2022/07/14 12:23:05;;;;;;;1.00;1.00;;;;;;;;;;5143935;27;20217;-71
2022/07/14 12:25:32;;;;;;;2.17;1.15;;;;;;;;;;5134349;27;20205;-70
2022/07/14 12:27:59;;;;;;;3.05;0.95;;;;;;;;;;5145124;27;20521;-70
2022/07/14 12:30:41;;;;;;;6.65;1.38;;;;;;;;;;5147115;27;20214;-70
2022/07/14 12:33:07;;;;;;;4.97;1.10;;;;;;;;;;5144605;27;20442;-70
2022/07/14 12:35:34;;;;;;;6.38;1.10;;;;;;;;;;5147107;27;20267;-70
2022/07/14 12:38:00;;;;;;;2.75;1.45;;;;;;;;;;5134907;27;20589;-70
2022/07/14 12:40:27;;;;;;;5.10;1.15;;;;;;;;;;5134099;27;20255;-70
2022/07/14 12:42:53;;;;;;;2.90;1.00;;;;;;;;;;5147170;27;20216;-70
2022/07/14 12:45:19;;;;;;;4.07;1.00;;;;;;;;;;5134684;27;20213;-70
2022/07/14 12:47:50;;;;;;;1.00;0.73;;;;;;;;;;5143062;27;20231;-70
2022/07/14 12:50:20;;;;;;;3.13;0.82;;;;;;;;;;5134896;27;20216;-70
2022/07/14 12:52:50;;;;;;;8.98;1.08;;;;;;;;;;5147986;27;20254;-70
2022/07/14 12:55:30;;;;;;;10.75;1.20;;;;;;;;;;5135030;27;20209;-70
2022/07/14 12:58:02;;;;;;;1.95;0.90;;;;;;;;;;5133849;27;20443;-70
2022/07/14 13:00:30;;;;;;;2.05;1.00;;;;;;;;;;5137284;27;20209;-70
2022/07/14 13:03:08;;;;;;;7.10;1.20;;;;;;;;;;5154681;27;20216;-70
2022/07/14 13:05:35;;;;;;;2.72;1.15;;;;;;;;;;5141607;27;20212;-70
2022/07/14 13:08:01;;;;;;;4.22;1.20;;;;;;;;;;5154085;27;20440;-70
2022/07/14 13:10:27;;;;;;;7.80;1.30;;;;;;;;;;5138934;27;20239;-69
2022/07/14 13:12:54;;;;;;;1.40;1.00;;;;;;;;;;5133630;27;20388;-69
2022/07/14 13:15:22;;;;;;;5.80;0.98;;;;;;;;;;5134575;27;20250;-69
2022/07/14 13:17:49;;;;;;;3.50;1.13;;;;;;;;;;5133389;27;20247;-69
2022/07/14 13:20:30;;;;;;;5.32;1.00;;;;;;;;;;5141884;27;20278;-69
2022/07/14 13:22:58;;;;;;;3.92;1.00;;;;;;;;;;5139768;27;20206;-69
2022/07/14 13:25:24;;;;;;;9.90;1.15;;;;;;;;;;5135418;27;20237;-69
2022/07/14 13:27:51;;;;;;;7.05;1.50;;;;;;;;;;5133579;27;20263;-70
2022/07/14 13:30:17;;;;;;;5.90;0.93;;;;;;;;;;5134118;27;20210;-70
2022/07/14 13:32:43;;;;;;;2.17;0.90;;;;;;;;;;5133903;27;20217;-69
2022/07/14 13:35:09;;;;;;;1.58;1.00;;;;;;;;;;5135902;27;20255;-69
2022/07/14 13:37:35;;;;;;;6.90;0.93;;;;;;;;;;5133599;27;20222;-69
2022/07/14 13:40:03;;;;;;;3.60;1.00;;;;;;;;;;5144528;27;20213;-69
2022/07/14 13:42:30;;;;;;;7.78;1.00;;;;;;;;;;5155036;27;20213;-70
2022/07/14 13:44:56;;;;;;;9.38;0.82;;;;;;;;;;5153988;27;20217;-71
2022/07/14 13:47:22;;;;;;;7.13;0.95;;;;;;;;;;5152570;27;20225;-71
2022/07/14 13:52:32;;;;;;;5.57;0.85;;;;;;;;;;5133306;27;20207;-71
2022/07/14 13:55:00;;;;;;;5.85;1.02;;;;;;;;;;5133385;27;20266;-71
2022/07/14 13:57:28;;;;;;;6.32;1.05;;;;;;;;;;5135972;27;20286;-70
2022/07/14 13:59:54;;;;;;;1.85;0.85;;;;;;;;;;5136639;27;20210;-70
2022/07/14 14:02:20;;;;;;;2.50;0.80;;;;;;;;;;5137870;27;20209;-70
2022/07/14 14:04:46;;;;;;;1.40;0.88;;;;;;;;;;5158287;27;20209;-70
2022/07/14 14:07:13;;;;;;;3.63;1.02;;;;;;;;;;5157952;27;20680;-70
2022/07/14 14:09:39;;;;;;;3.35;1.15;;;;;;;;;;5149862;27;20210;-70
2022/07/14 14:12:06;;;;;;;4.68;0.70;;;;;;;;;;5139898;27;20213;-71
2022/07/14 14:14:34;;;;;;;4.47;0.90;;;;;;;;;;5157570;27;20209;-71
2022/07/14 14:17:00;;;;;;;5.38;0.90;;;;;;;;;;5147297;27;20228;-70
2022/07/14 14:19:26;;;;;;;2.90;0.98;;;;;;;;;;5136610;27;20214;-70
2022/07/14 14:21:53;;;;;;;3.88;0.85;;;;;;;;;;5150712;27;20410;-70
2022/07/14 14:24:19;;;;;;;2.60;0.80;;;;;;;;;;5158111;27;20213;-70
2022/07/14 14:26:46;;;;;;;1.67;1.10;;;;;;;;;;5152721;27;20521;-70
2022/07/14 14:29:12;;;;;;;1.52;1.05;;;;;;;;;;5156875;27;20246;-70
2022/07/14 14:31:40;;;;;;;4.20;1.15;;;;;;;;;;5154187;27;20217;-70
2022/07/14 14:34:06;;;;;;;1.98;1.20;;;;;;;;;;5140854;27;20540;-71
2022/07/14 14:36:32;;;;;;;3.60;0.90;;;;;;;;;;5145661;27;20572;-70
2022/07/14 14:38:59;;;;;;;3.58;1.33;;;;;;;;;;5148820;27;20214;-70
2022/07/14 14:41:25;;;;;;;1.33;0.88;;;;;;;;;;5136159;27;20557;-70
2022/07/14 14:43:51;;;;;;;3.60;1.13;;;;;;;;;;5137162;27;20463;-70
2022/07/14 14:46:17;;;;;;;2.90;1.08;;;;;;;;;;5153687;27;20266;-70
2022/07/14 14:48:45;;;;;;;6.30;0.90;;;;;;;;;;5156792;27;20420;-70
2022/07/14 14:51:11;;;;;;;1.85;1.05;;;;;;;;;;5157288;27;20208;-70
2022/07/14 14:53:37;;;;;;;0.90;0.75;;;;;;;;;;5136318;27;20205;-70
2022/07/14 14:56:04;;;;;;;4.50;1.23;;;;;;;;;;5136197;27;20286;-70
2022/07/14 14:58:30;;;;;;;4.50;1.10;;;;;;;;;;5155636;27;20209;-70